createdAt,value
2023-03-14T00:00:34.431Z,1.10
2023-03-14T00:01:34.478Z,0.90
2023-03-14T00:02:34.537Z,0.80
2023-03-14T00:03:34.390Z,0.90
2023-03-14T00:04:34.523Z,1.00
2023-03-14T00:05:34.518Z,1.10
2023-03-14T00:06:34.362Z,2.00
2023-03-14T00:07:34.352Z,0.60
2023-03-14T00:08:34.363Z,0.60
2023-03-14T00:09:34.365Z,0.80
2023-03-14T00:10:34.611Z,1.20
2023-03-14T00:11:34.621Z,0.90
2023-03-14T00:12:34.320Z,0.90
2023-03-14T00:13:34.274Z,0.80
2023-03-14T00:14:34.665Z,1.10
2023-03-14T00:15:34.478Z,1.10
2023-03-14T00:16:34.382Z,1.00
2023-03-14T00:17:34.366Z,0.60
2023-03-14T00:18:34.706Z,0.50
2023-03-14T00:19:34.566Z,0.40
2023-03-14T00:20:34.744Z,1.10
2023-03-14T00:21:34.747Z,1.00
2023-03-14T00:22:34.763Z,0.60
2023-03-14T00:23:34.182Z,1.00
2023-03-14T00:24:34.789Z,1.00
2023-03-14T00:25:34.260Z,1.30
2023-03-14T00:26:34.814Z,1.00
2023-03-14T00:27:34.821Z,0.70
2023-03-14T00:28:34.270Z,0.50
2023-03-14T00:29:35.554Z,1.00
2023-03-14T00:30:34.453Z,1.20
2023-03-14T00:31:34.169Z,0.70
2023-03-14T00:32:34.076Z,0.70
2023-03-14T00:33:34.070Z,0.70
2023-03-14T00:34:34.058Z,1.00
2023-03-14T00:35:34.082Z,0.50
2023-03-14T00:36:34.704Z,1.00
2023-03-14T00:37:34.036Z,0.90
2023-03-14T00:38:34.405Z,1.20
2023-03-14T00:39:34.026Z,0.60
2023-03-14T00:40:33.974Z,0.90
2023-03-14T00:41:34.042Z,1.30
2023-03-14T00:42:34.028Z,1.40
2023-03-14T00:43:34.041Z,0.90
2023-03-14T00:44:34.240Z,1.80
2023-03-14T00:45:34.791Z,2.10
2023-03-14T00:46:34.069Z,0.70
2023-03-14T00:47:33.874Z,1.00
2023-03-14T00:48:33.903Z,0.90
2023-03-14T00:49:33.891Z,0.90
2023-03-14T00:50:33.968Z,1.20
2023-03-14T00:51:33.829Z,1.00
2023-03-14T00:52:34.026Z,0.70
2023-03-14T00:53:34.060Z,1.00
2023-03-14T00:54:34.085Z,0.70
2023-03-14T00:55:34.113Z,1.20
2023-03-14T00:56:33.991Z,1.20
2023-03-14T00:57:33.989Z,2.00
2023-03-14T00:58:34.062Z,1.20
2023-03-14T00:59:34.042Z,0.90
2023-03-14T01:00:34.268Z,1.00
2023-03-14T01:01:33.761Z,0.70
2023-03-14T01:02:34.336Z,0.70
2023-03-14T01:03:34.357Z,0.50
2023-03-14T01:04:34.386Z,0.70
2023-03-14T01:05:33.715Z,1.10
2023-03-14T01:06:34.089Z,1.20
2023-03-14T01:07:33.665Z,0.80
2023-03-14T01:08:33.909Z,1.80
2023-03-14T01:09:33.907Z,1.00
2023-03-14T01:10:33.645Z,0.60
2023-03-14T01:11:33.752Z,0.90
2023-03-14T01:12:33.751Z,0.90
2023-03-14T01:13:33.588Z,0.60
2023-03-14T01:14:34.060Z,0.70
2023-03-14T01:15:34.071Z,0.60
2023-03-14T01:16:34.129Z,0.90
2023-03-14T01:17:33.543Z,1.40
2023-03-14T01:18:33.532Z,1.30
2023-03-14T01:19:33.534Z,1.50
2023-03-14T01:20:33.554Z,1.80
2023-03-14T01:21:33.577Z,4.40
2023-03-14T01:22:33.584Z,1.00
2023-03-14T01:23:33.588Z,0.90
2023-03-14T01:24:33.512Z,1.00
2023-03-14T01:25:33.439Z,1.50
2023-03-14T01:26:33.448Z,1.30
2023-03-14T01:27:33.643Z,0.60
2023-03-14T01:28:33.426Z,1.40
2023-03-14T01:29:33.678Z,2.10
2023-03-14T01:30:33.703Z,1.40
2023-03-14T01:31:33.600Z,1.00
2023-03-14T01:32:33.563Z,1.00
2023-03-14T01:33:33.749Z,0.90
2023-03-14T01:34:33.758Z,0.70
2023-03-14T01:35:33.339Z,0.70
2023-03-14T01:36:33.355Z,1.00
2023-03-14T01:37:33.376Z,1.00
2023-03-14T01:38:33.417Z,0.70
2023-03-14T01:39:33.279Z,1.80
2023-03-14T01:40:33.483Z,0.80
2023-03-14T01:41:33.248Z,0.70
2023-03-14T01:42:33.541Z,1.00
2023-03-14T01:43:33.252Z,1.90
2023-03-14T01:44:33.579Z,1.40
2023-03-14T01:45:33.672Z,1.10
2023-03-14T01:46:33.297Z,1.30
2023-03-14T01:47:33.178Z,1.30
2023-03-14T01:48:33.444Z,0.80
2023-03-14T01:49:33.554Z,0.90
2023-03-14T01:50:33.168Z,1.10
2023-03-14T01:51:33.350Z,1.00
2023-03-14T01:52:33.896Z,1.50
2023-03-14T01:53:33.130Z,1.00
2023-03-14T01:54:33.936Z,1.00
2023-03-14T01:55:33.112Z,0.70
2023-03-14T01:56:33.095Z,1.20
2023-03-14T01:57:33.073Z,0.80
2023-03-14T01:58:33.069Z,1.30
2023-03-14T01:59:33.060Z,0.40
2023-03-14T02:00:33.101Z,0.90
2023-03-14T02:01:33.066Z,0.90
2023-03-14T02:02:33.098Z,0.70
2023-03-14T02:03:33.042Z,0.60
2023-03-14T02:04:33.099Z,0.80
2023-03-14T02:05:32.969Z,0.80
2023-03-14T02:06:32.982Z,0.50
2023-03-14T02:07:33.095Z,3.10
2023-03-14T02:08:33.101Z,0.70
2023-03-14T02:09:33.067Z,0.70
2023-03-14T02:10:33.101Z,0.60
2023-03-14T02:11:33.092Z,1.00
2023-03-14T02:12:32.901Z,0.60
2023-03-14T02:13:32.888Z,1.20
2023-03-14T02:14:32.883Z,0.80
2023-03-14T02:15:32.858Z,1.20
2023-03-14T02:16:33.241Z,0.60
2023-03-14T02:17:33.094Z,0.50
2023-03-14T02:18:33.109Z,0.50
2023-03-14T02:19:32.864Z,0.70
2023-03-14T02:20:32.814Z,0.70
2023-03-14T02:21:32.773Z,0.70
2023-03-14T02:22:32.780Z,1.20
2023-03-14T02:23:32.756Z,0.60
2023-03-14T02:24:32.764Z,0.80
2023-03-14T02:25:32.823Z,1.50
2023-03-14T02:26:32.864Z,1.30
2023-03-14T02:27:32.702Z,0.90
2023-03-14T02:28:32.950Z,0.80
2023-03-14T02:29:32.675Z,1.40
2023-03-14T02:30:32.712Z,0.90
2023-03-14T02:31:33.029Z,0.70
2023-03-14T02:32:33.102Z,1.00
2023-03-14T02:33:33.073Z,0.60
2023-03-14T02:34:32.642Z,1.00
2023-03-14T02:35:32.669Z,2.60
2023-03-14T02:36:32.626Z,0.80
2023-03-14T02:37:32.630Z,1.10
2023-03-14T02:38:32.579Z,1.00
2023-03-14T02:39:32.571Z,0.70
2023-03-14T02:40:32.652Z,0.80
2023-03-14T02:41:32.660Z,1.80
2023-03-14T02:42:32.680Z,0.80
2023-03-14T02:43:32.533Z,1.60
2023-03-14T02:44:32.706Z,1.00
2023-03-14T02:45:32.557Z,0.80
2023-03-14T02:46:32.485Z,0.70
2023-03-14T02:47:32.480Z,1.10
2023-03-14T02:48:32.460Z,1.20
2023-03-14T02:49:32.784Z,1.50
2023-03-14T02:50:32.790Z,2.20
2023-03-14T02:51:32.597Z,1.30
2023-03-14T02:52:32.412Z,1.60
2023-03-14T02:53:32.833Z,0.90
2023-03-14T02:54:32.385Z,1.90
2023-03-14T02:55:32.388Z,1.00
2023-03-14T02:56:32.863Z,0.90
2023-03-14T02:57:32.504Z,0.90
2023-03-14T02:58:32.787Z,1.90
2023-03-14T02:59:32.468Z,1.20
2023-03-14T03:00:32.319Z,1.30
2023-03-14T03:01:32.383Z,0.70
2023-03-14T03:02:32.287Z,2.00
2023-03-14T03:03:32.338Z,1.10
2023-03-14T03:04:32.968Z,0.90
2023-03-14T03:05:32.983Z,1.90
2023-03-14T03:06:33.000Z,2.20
2023-03-14T03:07:32.255Z,1.70
2023-03-14T03:08:32.694Z,1.80
2023-03-14T03:09:32.220Z,1.10
2023-03-14T03:10:32.192Z,1.80
2023-03-14T03:11:32.208Z,1.80
2023-03-14T03:12:32.226Z,0.70
2023-03-14T03:13:32.272Z,1.00
2023-03-14T03:14:32.165Z,1.50
2023-03-14T03:15:32.146Z,1.30
2023-03-14T03:16:32.177Z,0.90
2023-03-14T03:17:32.195Z,1.50
2023-03-14T03:18:32.106Z,1.10
2023-03-14T03:19:32.102Z,1.00
2023-03-14T03:20:32.147Z,1.00
2023-03-14T03:21:32.155Z,2.00
2023-03-14T03:22:32.081Z,1.30
2023-03-14T03:23:32.082Z,0.80
2023-03-14T03:24:32.150Z,1.30
2023-03-14T03:25:32.045Z,1.00
2023-03-14T03:26:32.025Z,1.80
2023-03-14T03:27:32.025Z,2.20
2023-03-14T03:28:32.020Z,1.80
2023-03-14T03:29:32.004Z,1.50
2023-03-14T03:30:32.201Z,1.10
2023-03-14T03:31:31.973Z,0.70
2023-03-14T03:32:31.972Z,1.70
2023-03-14T03:33:31.976Z,0.70
2023-03-14T03:34:31.919Z,1.00
2023-03-14T03:35:31.991Z,1.40
2023-03-14T03:36:32.119Z,0.90
2023-03-14T03:37:32.171Z,1.10
2023-03-14T03:38:32.170Z,1.30
2023-03-14T03:39:32.178Z,1.80
2023-03-14T03:40:31.870Z,1.20
2023-03-14T03:41:31.867Z,1.70
2023-03-14T03:42:31.847Z,1.10
2023-03-14T03:43:31.842Z,1.10
2023-03-14T03:44:31.831Z,1.00
2023-03-14T03:45:32.174Z,1.00
2023-03-14T03:46:31.878Z,1.60
2023-03-14T03:47:32.180Z,1.40
2023-03-14T03:48:32.188Z,1.50
2023-03-14T03:49:31.783Z,0.80
2023-03-14T03:50:31.739Z,0.80
2023-03-14T03:51:31.750Z,1.40
2023-03-14T03:52:32.173Z,1.20
2023-03-14T03:53:33.827Z,0.70
2023-03-14T03:54:31.709Z,1.20
2023-03-14T03:55:31.685Z,1.20
2023-03-14T03:56:31.706Z,0.80
2023-03-14T03:57:31.678Z,0.80
2023-03-14T03:58:31.648Z,1.70
2023-03-14T03:59:31.664Z,1.20
2023-03-14T04:00:31.740Z,1.50
2023-03-14T04:01:31.785Z,1.20
2023-03-14T04:02:31.652Z,1.20
2023-03-14T04:03:31.638Z,1.50
2023-03-14T04:04:31.584Z,1.00
2023-03-14T04:05:31.573Z,1.70
2023-03-14T04:06:31.575Z,0.90
2023-03-14T04:07:31.550Z,0.60
2023-03-14T04:08:31.533Z,1.70
2023-03-14T04:09:31.594Z,2.50
2023-03-14T04:10:31.523Z,1.20
2023-03-14T04:11:31.516Z,0.70
2023-03-14T04:12:31.483Z,0.80
2023-03-14T04:13:31.491Z,0.90
2023-03-14T04:14:31.462Z,1.20
2023-03-14T04:15:31.471Z,0.50
2023-03-14T04:16:31.966Z,1.30
2023-03-14T04:17:31.490Z,1.10
2023-03-14T04:18:31.993Z,2.10
2023-03-14T04:19:31.858Z,1.30
2023-03-14T04:20:31.390Z,0.50
2023-03-14T04:21:31.411Z,0.60
2023-03-14T04:22:31.366Z,0.60
2023-03-14T04:23:31.371Z,0.80
2023-03-14T04:24:31.366Z,0.50
2023-03-14T04:25:32.146Z,0.80
2023-03-14T04:26:31.343Z,0.80
2023-03-14T04:27:32.115Z,0.50
2023-03-14T04:28:32.130Z,0.30
2023-03-14T04:29:31.300Z,1.30
2023-03-14T04:30:31.279Z,0.40
2023-03-14T04:31:32.130Z,0.30
2023-03-14T04:32:31.352Z,0.70
2023-03-14T04:33:31.263Z,0.50
2023-03-14T04:34:31.235Z,0.60
2023-03-14T04:35:31.232Z,0.50
2023-03-14T04:36:31.213Z,0.60
2023-03-14T04:37:31.208Z,0.60
2023-03-14T04:38:31.184Z,0.50
2023-03-14T04:39:31.182Z,0.60
2023-03-14T04:40:31.206Z,0.40
2023-03-14T04:41:31.220Z,0.50
2023-03-14T04:42:31.134Z,0.40
2023-03-14T04:43:31.214Z,0.40
2023-03-14T04:44:31.108Z,0.80
2023-03-14T04:45:31.104Z,0.90
2023-03-14T04:46:31.129Z,0.40
2023-03-14T04:47:31.101Z,0.70
2023-03-14T04:48:31.176Z,0.60
2023-03-14T04:49:31.206Z,0.60
2023-03-14T04:50:31.034Z,0.50
2023-03-14T04:51:31.056Z,0.40
2023-03-14T04:52:31.029Z,0.80
2023-03-14T04:53:32.922Z,0.40
2023-03-14T04:54:30.982Z,0.40
2023-03-14T04:55:31.008Z,0.30
2023-03-14T04:56:31.219Z,0.30
2023-03-14T04:57:31.224Z,0.50
2023-03-14T04:58:31.226Z,0.50
2023-03-14T04:59:31.231Z,3.30
2023-03-14T05:00:30.919Z,0.40
2023-03-14T05:01:30.959Z,0.30
2023-03-14T05:02:30.916Z,0.40
2023-03-14T05:03:30.899Z,0.40
2023-03-14T05:04:31.183Z,0.40
2023-03-14T05:05:31.235Z,0.50
2023-03-14T05:06:30.851Z,0.30
2023-03-14T05:07:30.867Z,0.30
2023-03-14T05:08:30.831Z,0.40
2023-03-14T05:09:30.838Z,0.30
2023-03-14T05:10:30.801Z,0.60
2023-03-14T05:11:30.815Z,0.30
2023-03-14T05:12:31.229Z,0.40
2023-03-14T05:13:30.959Z,0.40
2023-03-14T05:14:30.752Z,0.40
2023-03-14T05:15:30.758Z,0.30
2023-03-14T05:16:30.776Z,0.30
2023-03-14T05:17:30.735Z,1.20
2023-03-14T05:18:30.723Z,0.40
2023-03-14T05:19:30.711Z,0.60
2023-03-14T05:20:30.805Z,0.40
2023-03-14T05:21:30.814Z,0.30
2023-03-14T05:22:30.660Z,0.30
2023-03-14T05:23:30.681Z,0.30
2023-03-14T05:24:30.628Z,0.30
2023-03-14T05:25:32.575Z,0.40
2023-03-14T05:26:30.615Z,0.40
2023-03-14T05:27:30.611Z,0.40
2023-03-14T05:28:30.870Z,0.60
2023-03-14T05:29:30.931Z,0.30
2023-03-14T05:30:30.577Z,0.60
2023-03-14T05:31:30.990Z,0.40
2023-03-14T05:32:30.571Z,0.30
2023-03-14T05:33:30.551Z,0.40
2023-03-14T05:34:30.531Z,0.30
2023-03-14T05:35:30.535Z,0.30
2023-03-14T05:36:30.638Z,0.40
2023-03-14T05:37:30.711Z,0.30
2023-03-14T05:38:30.490Z,0.40
2023-03-14T05:39:30.489Z,0.30
2023-03-14T05:40:30.451Z,0.30
2023-03-14T05:41:30.453Z,0.40
2023-03-14T05:42:30.426Z,0.30
2023-03-14T05:43:30.783Z,0.30
2023-03-14T05:44:30.486Z,0.30
2023-03-14T05:45:30.981Z,0.30
2023-03-14T05:46:30.379Z,0.30
2023-03-14T05:47:30.783Z,0.30
2023-03-14T05:48:30.355Z,0.40
2023-03-14T05:49:30.353Z,0.30
2023-03-14T05:50:30.347Z,0.50
2023-03-14T05:51:30.611Z,0.40
2023-03-14T05:52:30.398Z,0.30
2023-03-14T05:53:31.210Z,0.30
2023-03-14T05:54:30.416Z,0.40
2023-03-14T05:55:30.294Z,0.20
2023-03-14T05:56:30.275Z,0.40
2023-03-14T05:57:30.268Z,0.30
2023-03-14T05:58:30.235Z,0.40
2023-03-14T05:59:30.254Z,0.40
2023-03-14T06:00:30.260Z,0.50
2023-03-14T06:01:30.264Z,0.30
2023-03-14T06:02:30.236Z,0.40
2023-03-14T06:03:31.339Z,0.30
2023-03-14T06:04:30.188Z,0.20
2023-03-14T06:05:30.164Z,0.30
2023-03-14T06:06:30.147Z,0.30
2023-03-14T06:07:30.167Z,0.30
2023-03-14T06:08:30.162Z,0.30
2023-03-14T06:09:30.280Z,0.50
2023-03-14T06:10:30.112Z,0.40
2023-03-14T06:11:30.098Z,0.30
2023-03-14T06:12:30.096Z,0.60
2023-03-14T06:13:30.068Z,0.30
2023-03-14T06:14:30.044Z,0.50
2023-03-14T06:15:30.057Z,0.20
2023-03-14T06:16:30.117Z,0.50
2023-03-14T06:17:30.208Z,0.30
2023-03-14T06:18:30.006Z,0.30
2023-03-14T06:19:30.000Z,0.40
2023-03-14T06:20:29.970Z,0.30
2023-03-14T06:21:29.988Z,0.30
2023-03-14T06:22:29.941Z,0.30
2023-03-14T06:23:29.969Z,0.40
2023-03-14T06:24:29.943Z,0.30
2023-03-14T06:25:30.163Z,0.40
2023-03-14T06:26:29.905Z,0.30
2023-03-14T06:27:30.217Z,0.40
2023-03-14T06:28:30.247Z,0.30
2023-03-14T06:29:29.903Z,0.30
2023-03-14T06:30:29.899Z,0.30
2023-03-14T06:31:30.287Z,0.30
2023-03-14T06:32:29.889Z,0.40
2023-03-14T06:33:29.853Z,0.20
2023-03-14T06:34:29.829Z,0.40
2023-03-14T06:35:29.901Z,0.40
2023-03-14T06:36:29.791Z,0.30
2023-03-14T06:37:29.801Z,0.30
2023-03-14T06:38:29.893Z,0.30
2023-03-14T06:39:29.791Z,0.20
2023-03-14T06:40:30.044Z,0.40
2023-03-14T06:41:29.933Z,0.40
2023-03-14T06:42:29.723Z,0.40
2023-03-14T06:43:29.950Z,0.30
2023-03-14T06:44:29.703Z,0.40
2023-03-14T06:45:29.692Z,0.30
2023-03-14T06:46:29.761Z,0.30
2023-03-14T06:47:29.687Z,0.40
2023-03-14T06:48:29.943Z,0.50
2023-03-14T06:49:30.087Z,0.30
2023-03-14T06:50:29.645Z,0.30
2023-03-14T06:51:30.052Z,0.40
2023-03-14T06:52:30.115Z,0.40
2023-03-14T06:53:29.586Z,0.30
2023-03-14T06:54:29.601Z,0.30
2023-03-14T06:55:29.563Z,0.30
2023-03-14T06:56:29.944Z,0.30
2023-03-14T06:57:29.714Z,0.40
2023-03-14T06:58:29.541Z,0.30
2023-03-14T06:59:29.533Z,0.30
2023-03-14T07:00:29.524Z,0.30
2023-03-14T07:01:29.601Z,0.30
2023-03-14T07:02:41.894Z,0.40
2023-03-14T07:03:30.470Z,0.30
2023-03-14T07:04:29.516Z,0.40
2023-03-14T07:05:30.258Z,0.40
2023-03-14T07:06:29.456Z,0.40
2023-03-14T07:07:29.445Z,0.20
2023-03-14T07:08:29.430Z,0.30
2023-03-14T07:09:29.398Z,0.40
2023-03-14T07:10:29.512Z,0.40
2023-03-14T07:11:29.395Z,0.30
2023-03-14T07:12:29.579Z,0.30
2023-03-14T07:13:29.355Z,0.40
2023-03-14T07:14:29.358Z,0.30
2023-03-14T07:15:29.348Z,0.40
2023-03-14T07:16:29.334Z,0.30
2023-03-14T07:17:29.322Z,0.30
2023-03-14T07:18:29.307Z,0.70
2023-03-14T07:19:29.282Z,0.30
2023-03-14T07:20:29.344Z,0.40
2023-03-14T07:21:29.259Z,0.30
2023-03-14T07:22:29.323Z,0.30
2023-03-14T07:23:29.237Z,0.20
2023-03-14T07:24:29.292Z,0.20
2023-03-14T07:25:29.236Z,0.30
2023-03-14T07:26:29.237Z,0.30
2023-03-14T07:27:29.218Z,0.30
2023-03-14T07:28:29.348Z,0.30
2023-03-14T07:29:29.167Z,0.30
2023-03-14T07:30:29.175Z,0.50
2023-03-14T07:31:29.198Z,0.30
2023-03-14T07:32:29.169Z,0.30
2023-03-14T07:33:29.119Z,0.40
2023-03-14T07:34:29.138Z,0.30
2023-03-14T07:35:29.114Z,0.40
2023-03-14T07:36:29.349Z,0.30
2023-03-14T07:37:29.084Z,0.20
2023-03-14T07:38:29.095Z,0.20
2023-03-14T07:39:29.052Z,0.30
2023-03-14T07:40:29.057Z,0.20
2023-03-14T07:41:29.235Z,0.20
2023-03-14T07:42:29.039Z,0.30
2023-03-14T07:43:29.011Z,0.20
2023-03-14T07:44:29.349Z,0.20
2023-03-14T07:45:28.992Z,0.20
2023-03-14T07:46:29.031Z,0.30
2023-03-14T07:47:29.350Z,0.20
2023-03-14T07:48:28.963Z,0.20
2023-03-14T07:49:28.933Z,0.20
2023-03-14T07:50:28.943Z,0.20
2023-03-14T07:51:28.927Z,0.20
2023-03-14T07:52:28.959Z,0.30
2023-03-14T07:53:28.930Z,0.30
2023-03-14T07:54:28.932Z,0.20
2023-03-14T07:55:28.881Z,0.30
2023-03-14T07:56:28.875Z,0.20
2023-03-14T07:57:28.848Z,0.30
2023-03-14T07:58:28.872Z,0.20
2023-03-14T07:59:28.825Z,0.20
2023-03-14T08:00:28.824Z,0.30
2023-03-14T08:01:28.796Z,0.20
2023-03-14T08:02:28.842Z,0.40
2023-03-14T08:03:28.863Z,0.20
2023-03-14T08:04:28.821Z,0.20
2023-03-14T08:05:28.768Z,0.20
2023-03-14T08:06:28.762Z,0.20
2023-03-14T08:07:28.730Z,0.10
2023-03-14T08:08:29.130Z,0.10
2023-03-14T08:09:28.716Z,0.20
2023-03-14T08:10:28.707Z,0.20
2023-03-14T08:11:28.677Z,0.20
2023-03-14T08:12:28.680Z,0.20
2023-03-14T08:13:28.655Z,0.20
2023-03-14T08:14:28.754Z,0.20
2023-03-14T08:15:28.637Z,0.20
2023-03-14T08:16:29.047Z,0.20
2023-03-14T08:17:29.067Z,0.20
2023-03-14T08:18:28.623Z,0.30
2023-03-14T08:19:28.603Z,0.20
2023-03-14T08:20:28.596Z,0.10
2023-03-14T08:21:28.579Z,0.10
2023-03-14T08:22:28.561Z,0.20
2023-03-14T08:23:28.538Z,0.20
2023-03-14T08:24:29.346Z,0.40
2023-03-14T08:25:29.382Z,0.20
2023-03-14T08:26:28.525Z,0.20
2023-03-14T08:27:29.358Z,0.10
2023-03-14T08:28:29.270Z,0.20
2023-03-14T08:29:28.492Z,0.20
2023-03-14T08:30:28.535Z,0.20
2023-03-14T08:31:28.504Z,0.20
2023-03-14T08:32:28.512Z,0.20
2023-03-14T08:33:28.430Z,0.20
2023-03-14T08:34:28.505Z,0.20
2023-03-14T08:35:28.433Z,0.30
2023-03-14T08:36:28.417Z,0.20
2023-03-14T08:37:29.385Z,0.20
2023-03-14T08:38:28.483Z,0.10
2023-03-14T08:39:29.304Z,0.10
2023-03-14T08:40:29.152Z,0.20
2023-03-14T08:41:28.340Z,0.20
2023-03-14T08:42:28.342Z,0.20
2023-03-14T08:43:28.325Z,0.30
2023-03-14T08:44:28.388Z,0.60
2023-03-14T08:45:28.308Z,0.20
2023-03-14T08:46:28.304Z,0.20
2023-03-14T08:47:28.502Z,0.20
2023-03-14T08:48:28.531Z,0.20
2023-03-14T08:49:28.255Z,0.20
2023-03-14T08:50:28.265Z,0.20
2023-03-14T08:51:28.213Z,0.20
2023-03-14T08:52:28.292Z,0.10
2023-03-14T08:53:28.198Z,0.20
2023-03-14T08:54:28.206Z,0.10
2023-03-14T08:55:28.186Z,0.20
2023-03-14T08:56:28.403Z,0.20
2023-03-14T08:57:28.188Z,0.10
2023-03-14T08:58:28.413Z,0.20
2023-03-14T08:59:28.120Z,0.20
2023-03-14T09:00:28.123Z,0.20
2023-03-14T09:01:28.166Z,0.20
2023-03-14T09:02:28.100Z,0.10
2023-03-14T09:03:28.080Z,0.10
2023-03-14T09:04:28.414Z,0.20
2023-03-14T09:05:28.070Z,0.10
2023-03-14T09:06:28.410Z,0.20
2023-03-14T09:07:28.080Z,0.20
2023-03-14T09:08:28.038Z,0.20
2023-03-14T09:09:28.007Z,0.10
2023-03-14T09:10:28.012Z,0.10
2023-03-14T09:11:27.999Z,0.20
2023-03-14T09:12:28.011Z,0.20
2023-03-14T09:13:27.958Z,0.20
2023-03-14T09:14:28.019Z,0.20
2023-03-14T09:15:27.942Z,0.20
2023-03-14T09:16:27.985Z,0.20
2023-03-14T09:17:27.958Z,0.20
2023-03-14T09:18:27.919Z,0.20
2023-03-14T09:19:27.883Z,0.20
2023-03-14T09:20:28.114Z,0.20
2023-03-14T09:21:27.877Z,0.20
2023-03-14T09:22:28.154Z,0.30
2023-03-14T09:23:27.849Z,0.20
2023-03-14T09:24:27.844Z,0.20
2023-03-14T09:25:27.819Z,0.20
2023-03-14T09:26:28.197Z,0.20
2023-03-14T09:27:27.845Z,0.20
2023-03-14T09:28:27.815Z,0.20
2023-03-14T09:29:27.789Z,0.20
2023-03-14T09:30:27.824Z,0.20
2023-03-14T09:31:27.789Z,0.20
2023-03-14T09:32:27.908Z,0.20
2023-03-14T09:33:27.736Z,0.20
2023-03-14T09:34:27.732Z,0.30
2023-03-14T09:35:27.719Z,0.10
2023-03-14T09:36:28.013Z,0.20
2023-03-14T09:37:28.030Z,0.20
2023-03-14T09:38:28.063Z,0.20
2023-03-14T09:39:27.651Z,0.10
2023-03-14T09:40:27.661Z,0.20
2023-03-14T09:41:27.655Z,0.20
2023-03-14T09:42:27.914Z,0.20
2023-03-14T09:43:28.232Z,0.10
2023-03-14T09:44:27.920Z,0.20
2023-03-14T09:45:28.291Z,0.20
2023-03-14T09:46:28.328Z,0.20
2023-03-14T09:47:27.609Z,0.20
2023-03-14T09:48:27.558Z,0.10
2023-03-14T09:49:27.537Z,0.10
2023-03-14T09:50:28.446Z,0.40
2023-03-14T09:51:27.551Z,0.20
2023-03-14T09:52:28.368Z,0.20
2023-03-14T09:53:27.488Z,0.20
2023-03-14T09:54:28.482Z,0.20
2023-03-14T09:55:27.467Z,0.20
2023-03-14T09:56:27.478Z,0.20
2023-03-14T09:57:27.486Z,0.20
2023-03-14T09:58:27.446Z,0.20
2023-03-14T09:59:27.435Z,0.30
2023-03-14T10:00:27.456Z,0.20
2023-03-14T10:01:27.463Z,0.20
2023-03-14T10:02:27.452Z,0.20
2023-03-14T10:03:27.366Z,0.20
2023-03-14T10:04:27.416Z,0.20
2023-03-14T10:05:27.366Z,0.20
2023-03-14T10:06:27.371Z,0.20
2023-03-14T10:07:27.448Z,0.20
2023-03-14T10:08:27.452Z,0.20
2023-03-14T10:09:27.308Z,0.20
2023-03-14T10:10:27.475Z,0.20
2023-03-14T10:11:27.311Z,0.20
2023-03-14T10:12:27.476Z,0.20
2023-03-14T10:13:27.243Z,0.20
2023-03-14T10:14:27.257Z,0.30
2023-03-14T10:15:27.228Z,0.40
2023-03-14T10:16:27.255Z,0.20
2023-03-14T10:17:27.233Z,0.20
2023-03-14T10:18:29.182Z,0.20
2023-03-14T10:19:27.174Z,0.20
2023-03-14T10:20:27.174Z,0.20
2023-03-14T10:21:27.163Z,0.20
2023-03-14T10:22:27.144Z,0.20
2023-03-14T10:23:27.127Z,0.40
2023-03-14T10:24:27.461Z,0.20
2023-03-14T10:25:27.121Z,0.30
2023-03-14T10:26:27.129Z,0.20
2023-03-14T10:27:27.107Z,0.30
2023-03-14T10:28:27.097Z,0.30
2023-03-14T10:29:27.095Z,0.30
2023-03-14T10:30:27.069Z,0.30
2023-03-14T10:31:27.101Z,0.30
2023-03-14T10:32:27.123Z,0.20
2023-03-14T10:33:27.008Z,0.30
2023-03-14T10:34:27.034Z,0.30
2023-03-14T10:35:26.987Z,0.30
2023-03-14T10:36:27.064Z,0.50
2023-03-14T10:37:26.992Z,0.40
2023-03-14T10:38:26.982Z,0.30
2023-03-14T10:39:26.952Z,0.30
2023-03-14T10:40:27.245Z,0.30
2023-03-14T10:41:26.942Z,0.70
2023-03-14T10:42:26.940Z,0.40
2023-03-14T10:43:26.896Z,0.20
2023-03-14T10:44:26.925Z,0.40
2023-03-14T10:45:26.884Z,0.30
2023-03-14T10:46:26.913Z,0.20
2023-03-14T10:47:26.889Z,0.50
2023-03-14T10:48:27.355Z,0.40
2023-03-14T10:49:26.829Z,0.20
2023-03-14T10:50:26.842Z,0.30
2023-03-14T10:51:26.841Z,0.30
2023-03-14T10:52:35.715Z,0.50
2023-03-14T10:53:27.925Z,0.30
2023-03-14T10:54:26.796Z,0.30
2023-03-14T10:55:26.765Z,0.20
2023-03-14T10:56:27.222Z,0.30
2023-03-14T10:57:26.762Z,0.40
2023-03-14T10:58:26.757Z,0.30
2023-03-14T10:59:26.712Z,0.40
2023-03-14T11:00:26.731Z,0.30
2023-03-14T11:01:27.589Z,0.40
2023-03-14T11:02:26.743Z,0.40
2023-03-14T11:03:26.677Z,0.30
2023-03-14T11:04:26.751Z,0.40
2023-03-14T11:05:26.653Z,0.50
2023-03-14T11:06:26.774Z,0.40
2023-03-14T11:07:26.627Z,0.40
2023-03-14T11:08:26.648Z,0.50
2023-03-14T11:09:26.616Z,0.30
2023-03-14T11:10:26.614Z,0.40
2023-03-14T11:11:26.705Z,0.40
2023-03-14T11:12:26.970Z,0.50
2023-03-14T11:13:26.567Z,0.60
2023-03-14T11:14:26.608Z,0.40
2023-03-14T11:15:26.548Z,0.40
2023-03-14T11:16:26.526Z,0.40
2023-03-14T11:17:26.540Z,0.40
2023-03-14T11:18:26.507Z,0.40
2023-03-14T11:19:26.637Z,0.50
2023-03-14T11:20:26.513Z,0.50
2023-03-14T11:21:26.488Z,0.70
2023-03-14T11:22:26.449Z,0.80
2023-03-14T11:23:26.450Z,0.50
2023-03-14T11:24:26.421Z,0.40
2023-03-14T11:25:26.426Z,0.70
2023-03-14T11:26:26.422Z,0.50
2023-03-14T11:27:26.433Z,0.50
2023-03-14T11:28:26.382Z,0.60
2023-03-14T11:29:26.378Z,0.60
2023-03-14T11:30:28.162Z,0.40
2023-03-14T11:31:26.400Z,0.50
2023-03-14T11:32:26.349Z,0.50
2023-03-14T11:33:26.336Z,0.50
2023-03-14T11:34:26.341Z,0.60
2023-03-14T11:35:26.525Z,0.80
2023-03-14T11:36:26.521Z,0.60
2023-03-14T11:37:26.307Z,0.50
2023-03-14T11:38:26.346Z,0.60
2023-03-14T11:39:26.288Z,0.40
2023-03-14T11:40:26.528Z,0.80
2023-03-14T11:41:26.526Z,0.50
2023-03-14T11:42:26.210Z,1.00
2023-03-14T11:43:26.524Z,0.50
2023-03-14T11:44:26.533Z,0.50
2023-03-14T11:45:26.222Z,0.60
2023-03-14T11:46:27.168Z,0.70
2023-03-14T11:47:27.057Z,0.60
2023-03-14T11:48:26.147Z,0.50
2023-03-14T11:49:26.160Z,0.60
2023-03-14T11:50:26.151Z,0.50
2023-03-14T11:51:26.144Z,0.80
2023-03-14T11:52:26.195Z,0.50
2023-03-14T11:53:26.105Z,0.70
2023-03-14T11:54:26.204Z,0.50
2023-03-14T11:55:26.178Z,0.70
2023-03-14T11:56:26.076Z,0.60
2023-03-14T11:57:26.094Z,0.60
2023-03-14T11:58:26.040Z,0.90
2023-03-14T11:59:26.140Z,0.60
2023-03-14T12:00:26.295Z,0.60
2023-03-14T12:01:26.025Z,0.70
2023-03-14T12:02:26.339Z,0.60
2023-03-14T12:03:26.094Z,0.60
2023-03-14T12:04:25.962Z,0.70
2023-03-14T12:05:25.971Z,0.50
2023-03-14T12:06:25.932Z,0.60
2023-03-14T12:07:25.986Z,0.70
2023-03-14T12:08:26.390Z,1.40
2023-03-14T12:09:26.400Z,0.60
2023-03-14T12:10:26.422Z,0.80
2023-03-14T12:11:25.901Z,0.70
2023-03-14T12:12:25.863Z,1.10
2023-03-14T12:13:25.878Z,0.60
2023-03-14T12:14:25.855Z,0.50
2023-03-14T12:15:26.145Z,1.30
2023-03-14T12:16:26.129Z,0.70
2023-03-14T12:17:25.860Z,0.60
2023-03-14T12:18:25.816Z,0.70
2023-03-14T12:19:25.800Z,0.70
2023-03-14T12:20:25.806Z,0.50
2023-03-14T12:21:26.121Z,0.40
2023-03-14T12:22:25.800Z,0.40
2023-03-14T12:23:26.150Z,0.50
2023-03-14T12:24:25.816Z,0.40
2023-03-14T12:25:26.479Z,0.40
2023-03-14T12:26:25.828Z,0.40
2023-03-14T12:27:26.180Z,0.50
2023-03-14T12:28:25.828Z,0.60
2023-03-14T12:29:26.555Z,0.30
2023-03-14T12:30:25.734Z,0.40
2023-03-14T12:31:26.195Z,0.70
2023-03-14T12:32:25.906Z,0.30
2023-03-14T12:33:26.562Z,0.50
2023-03-14T12:34:25.844Z,0.40
2023-03-14T12:35:25.630Z,0.40
2023-03-14T12:36:25.590Z,0.40
2023-03-14T12:37:25.606Z,0.50
2023-03-14T12:38:25.559Z,0.70
2023-03-14T12:39:25.580Z,0.90
2023-03-14T12:40:25.562Z,0.70
2023-03-14T12:41:25.573Z,0.60
2023-03-14T12:42:29.678Z,0.40
2023-03-14T12:43:26.521Z,0.40
2023-03-14T12:44:25.509Z,0.50
2023-03-14T12:45:25.554Z,0.40
2023-03-14T12:46:25.527Z,0.60
2023-03-14T12:47:25.572Z,0.50
2023-03-14T12:48:25.561Z,0.30
2023-03-14T12:49:25.459Z,0.50
2023-03-14T12:50:25.476Z,0.40
2023-03-14T12:51:25.412Z,0.30
2023-03-14T12:52:25.393Z,0.40
2023-03-14T12:53:25.402Z,0.60
2023-03-14T12:54:25.392Z,0.40
2023-03-14T12:55:25.590Z,0.60
2023-03-14T12:56:25.429Z,0.60
2023-03-14T12:57:25.358Z,0.40
2023-03-14T12:58:25.378Z,0.40
2023-03-14T12:59:25.314Z,0.50
2023-03-14T13:00:25.299Z,0.40
2023-03-14T13:01:25.362Z,0.70
2023-03-14T13:02:25.586Z,0.40
2023-03-14T13:03:25.500Z,0.40
2023-03-14T13:04:36.960Z,0.40
2023-03-14T13:05:26.711Z,0.30
2023-03-14T13:06:25.251Z,0.40
2023-03-14T13:07:25.257Z,0.40
2023-03-14T13:08:25.203Z,0.40
2023-03-14T13:09:25.215Z,0.30
2023-03-14T13:10:25.331Z,0.40
2023-03-14T13:11:25.199Z,0.40
2023-03-14T13:12:25.198Z,0.50
2023-03-14T13:13:25.155Z,0.50
2023-03-14T13:14:25.150Z,0.50
2023-03-14T13:15:25.160Z,0.80
2023-03-14T13:16:25.218Z,0.60
2023-03-14T13:17:34.439Z,0.50
2023-03-14T13:18:26.089Z,0.40